Time,TemperatureF,DewpointF,PressureIn,WindDirection,WindDirectionDegrees,WindSpeedMPH,WindSpeedGustMPH,Humidity,HourlyPrecipIn,Conditions,Clouds,dailyrainin,SoftwareType,DateUTC
2013-01-05 08:25:00,31.3,16.6,30.06,West,270,5.6,5.6,54,0.00,,---,0.00,VWS V14.01,2013-01-05 13:25:00,
2013-01-05 08:30:00,31.5,16.8,30.06,WNW,292,2.9,3.6,54,0.00,,---,0.00,VWS V14.01,2013-01-05 13:30:00,
2013-01-05 08:35:00,31.6,16.9,30.06,West,270,2.9,2.9,54,0.00,,---,0.00,VWS V14.01,2013-01-05 13:35:00,
2013-01-05 08:40:00,31.8,17.1,30.06,WNW,292,2.5,2.7,54,0.00,,---,0.00,VWS V14.01,2013-01-05 13:40:00,
2013-01-05 08:45:00,32.2,17.0,30.06,WNW,292,6.0,6.0,53,0.00,,---,0.00,VWS V14.01,2013-01-05 13:45:00,
2013-01-05 08:50:00,32.7,17.5,30.06,NW,315,2.9,2.9,53,0.00,,---,0.00,VWS V14.01,2013-01-05 13:50:00,
2013-01-05 08:55:00,33.3,18.0,30.06,NW,315,3.4,3.4,53,0.00,,---,0.00,VWS V14.01,2013-01-05 13:55:00,
2013-01-05 09:00:00,33.8,18.0,30.06,WNW,292,6.0,6.0,52,0.00,,---,0.00,VWS V14.01,2013-01-05 14:00:00,
2013-01-05 09:05:00,34.0,18.2,30.06,WNW,292,4.7,7.6,52,0.00,,---,0.00,VWS V14.01,2013-01-05 14:05:00,
2013-01-05 09:10:00,34.3,18.1,30.06,NW,315,5.8,5.8,51,0.00,,---,0.00,VWS V14.01,2013-01-05 14:10:00,
2013-01-05 09:15:00,34.7,18.4,30.06,NNW,338,3.4,7.6,51,0.00,,---,0.00,VWS V14.01,2013-01-05 14:15:00,
2013-01-05 09:20:00,35.4,19.1,30.06,WNW,292,4.3,4.3,51,0.00,,---,0.00,VWS V14.01,2013-01-05 14:20:00,
2013-01-05 09:25:00,35.8,19.0,30.06,ENE,68,3.8,9.8,50,0.00,,---,0.00,VWS V14.01,2013-01-05 14:25:00,
2013-01-05 09:30:00,36.3,19.0,30.06,NW,315,8.1,8.1,49,0.00,,---,0.00,VWS V14.01,2013-01-05 14:30:00,
2013-01-05 09:35:00,36.3,18.5,30.06,NNW,338,2.9,9.6,48,0.00,,---,0.00,VWS V14.01,2013-01-05 14:35:00,
2013-01-05 09:40:00,37.2,18.9,30.06,NE,45,7.2,7.2,47,0.00,,---,0.00,VWS V14.01,2013-01-05 14:40:00,
2013-01-05 09:45:00,38.3,19.9,30.09,WNW,292,3.6,10.3,47,0.00,,---,0.00,VWS V14.01,2013-01-05 14:45:00,
2013-01-05 09:50:00,38.8,20.4,30.09,WNW,292,5.4,5.4,47,0.00,,---,0.00,VWS V14.01,2013-01-05 14:50:00,
2013-01-05 09:55:00,38.7,19.2,30.09,North,0,8.1,8.1,45,0.00,,---,0.00,VWS V14.01,2013-01-05 14:55:00,
2013-01-05 10:00:00,39.9,20.8,30.09,NNW,338,10.3,10.3,46,0.00,,---,0.00,VWS V14.01,2013-01-05 15:00:00,
2013-01-05 10:05:00,39.7,19.6,30.09,NW,315,4.3,4.3,44,0.00,,---,0.00,VWS V14.01,2013-01-05 15:05:00,
2013-01-05 10:10:00,39.9,19.8,30.09,NNW,338,10.3,10.3,44,0.00,,---,0.00,VWS V14.01,2013-01-05 15:10:00,
2013-01-05 10:15:00,39.4,18.8,30.09,WNW,292,4.3,4.3,43,0.00,,---,0.00,VWS V14.01,2013-01-05 15:15:00,
2013-01-05 10:20:00,40.1,19.4,30.09,NNW,338,5.6,5.6,43,0.00,,---,0.00,VWS V14.01,2013-01-05 15:20:00,
2013-01-05 10:25:00,40.6,19.4,30.09,NW,315,7.4,7.4,42,0.00,,---,0.00,VWS V14.01,2013-01-05 15:25:00,
2013-01-05 10:30:00,40.1,19.4,30.09,NNW,338,11.0,11.0,43,0.00,,---,0.00,VWS V14.01,2013-01-05 15:30:00,
2013-01-05 10:35:00,41.0,19.7,30.09,WNW,292,7.8,7.8,42,0.00,,---,0.00,VWS V14.01,2013-01-05 15:35:00,
2013-01-05 10:40:00,41.5,20.7,30.09,NW,315,7.4,7.4,43,0.00,,---,0.00,VWS V14.01,2013-01-05 15:40:00,
2013-01-05 10:45:00,42.3,21.4,30.09,West,270,7.4,10.1,43,0.00,,---,0.00,VWS V14.01,2013-01-05 15:45:00,
2013-01-05 10:50:00,42.8,21.9,30.09,NE,45,5.6,5.6,43,0.00,,---,0.00,VWS V14.01,2013-01-05 15:50:00,
2013-01-05 10:55:00,42.4,21.0,30.09,NW,315,7.2,7.2,42,0.00,,---,0.00,VWS V14.01,2013-01-05 15:55:00,
2013-01-05 11:00:00,41.7,20.3,30.09,WNW,292,7.8,7.8,42,0.00,,---,0.00,VWS V14.01,2013-01-05 16:00:00,
2013-01-05 11:05:00,42.1,20.1,30.09,North,0,2.9,5.6,41,0.00,,---,0.00,VWS V14.01,2013-01-05 16:05:00,
2013-01-05 11:10:00,42.4,21.0,30.09,NW,315,2.5,2.5,42,0.00,,---,0.00,VWS V14.01,2013-01-05 16:10:00,
2013-01-05 11:15:00,42.4,21.0,30.09,NNW,338,6.5,8.5,42,0.00,,---,0.00,VWS V14.01,2013-01-05 16:15:00,
2013-01-05 11:20:00,42.1,20.1,30.09,NW,315,4.0,6.3,41,0.00,,---,0.00,VWS V14.01,2013-01-05 16:20:00,
2013-01-05 11:25:00,43.0,20.9,30.09,WNW,292,8.5,8.5,41,0.00,,---,0.00,VWS V14.01,2013-01-05 16:25:00,
2013-01-05 11:30:00,43.2,21.1,30.09,NW,315,5.6,5.6,41,0.00,,---,0.00,VWS V14.01,2013-01-05 16:30:00,
2013-01-05 11:35:00,44.1,22.5,30.06,WNW,292,3.4,6.5,42,0.00,,---,0.00,VWS V14.01,2013-01-05 16:35:00,
2013-01-05 11:40:00,44.1,21.9,30.06,NW,315,10.5,10.5,41,0.00,,---,0.00,VWS V14.01,2013-01-05 16:40:00,
2013-01-05 11:45:00,44.1,21.9,30.06,NNE,22,4.3,4.3,41,0.00,,---,0.00,VWS V14.01,2013-01-05 16:45:00,
2013-01-05 11:50:00,44.2,22.0,30.06,West,270,6.0,6.0,41,0.00,,---,0.00,VWS V14.01,2013-01-05 16:50:00,
2013-01-05 11:55:00,44.1,21.3,30.06,NNW,338,2.7,2.7,40,0.00,,---,0.00,VWS V14.01,2013-01-05 16:55:00,
2013-01-05 12:00:00,43.9,21.1,30.06,NW,315,3.1,3.1,40,0.00,,---,0.00,VWS V14.01,2013-01-05 17:00:00,
2013-01-05 12:05:00,44.4,22.2,30.06,North,0,2.9,2.9,41,0.00,,---,0.00,VWS V14.01,2013-01-05 17:05:00,
2013-01-05 12:10:00,44.4,22.2,30.06,WNW,292,12.5,12.5,41,0.00,,---,0.00,VWS V14.01,2013-01-05 17:10:00,
2013-01-05 12:15:00,44.2,21.5,30.06,NNW,338,8.7,8.7,40,0.00,,---,0.00,VWS V14.01,2013-01-05 17:15:00,
2013-01-05 12:20:00,44.2,22.0,30.06,NW,315,5.4,5.4,41,0.00,,---,0.00,VWS V14.01,2013-01-05 17:20:00,
2013-01-05 12:25:00,44.6,21.8,30.06,NNW,338,5.6,6.0,40,0.00,,---,0.00,VWS V14.01,2013-01-05 17:25:00,
2013-01-05 12:30:00,45.0,22.1,30.06,WNW,292,3.6,3.6,40,0.00,,---,0.00,VWS V14.01,2013-01-05 17:30:00,
2013-01-05 12:35:00,45.3,23.0,30.06,WNW,292,2.5,6.5,41,0.00,,---,0.00,VWS V14.01,2013-01-05 17:35:00,
2013-01-05 12:40:00,45.1,22.3,30.06,NNW,338,3.6,4.3,40,0.00,,---,0.00,VWS V14.01,2013-01-05 17:40:00,
2013-01-05 12:45:00,45.3,22.4,30.06,NNE,22,6.0,6.0,40,0.00,,---,0.00,VWS V14.01,2013-01-05 17:45:00,
2013-01-05 12:50:00,45.1,22.3,30.06,WNW,292,2.5,5.8,40,0.00,,---,0.00,VWS V14.01,2013-01-05 17:50:00,
2013-01-05 12:55:00,45.1,22.3,30.06,NNW,338,4.3,4.3,40,0.00,,---,0.00,VWS V14.01,2013-01-05 17:55:00,
2013-01-05 13:00:00,44.6,21.8,30.06,NNW,338,3.4,3.4,40,0.00,,---,0.00,VWS V14.01,2013-01-05 18:00:00,
2013-01-05 13:05:00,44.8,22.0,30.03,SSW,202,3.1,3.1,40,0.00,,---,0.00,VWS V14.01,2013-01-05 18:05:00,
2013-01-05 13:10:00,45.1,22.3,30.03,NNE,22,4.3,4.3,40,0.00,,---,0.00,VWS V14.01,2013-01-05 18:10:00,
2013-01-05 13:15:00,44.8,21.4,30.03,NW,315,6.5,6.5,39,0.00,,---,0.00,VWS V14.01,2013-01-05 18:15:00,
2013-01-05 13:20:00,45.0,22.1,30.03,NNW,338,2.7,2.7,40,0.00,,---,0.00,VWS V14.01,2013-01-05 18:20:00,
2013-01-05 13:25:00,44.6,21.2,30.03,NNE,22,5.4,5.4,39,0.00,,---,0.00,VWS V14.01,2013-01-05 18:25:00,
2013-01-05 13:30:00,45.1,22.3,30.03,ENE,68,3.4,5.4,40,0.00,,---,0.00,VWS V14.01,2013-01-05 18:30:00,
2013-01-05 13:35:00,45.1,21.7,30.03,NW,315,5.8,5.8,39,0.00,,---,0.00,VWS V14.01,2013-01-05 18:35:00,
2013-01-05 13:40:00,44.8,21.4,30.03,WNW,292,4.5,6.3,39,0.00,,---,0.00,VWS V14.01,2013-01-05 18:40:00,
2013-01-05 13:45:00,45.0,22.1,30.03,NNW,338,3.1,4.0,40,0.00,,---,0.00,VWS V14.01,2013-01-05 18:45:00,
2013-01-05 13:50:00,45.0,21.5,30.03,NNE,22,3.1,3.1,39,0.00,,---,0.00,VWS V14.01,2013-01-05 18:50:00,
2013-01-05 13:55:00,44.6,21.2,30.03,ENE,68,3.8,3.8,39,0.00,,---,0.00,VWS V14.01,2013-01-05 18:55:00,
2013-01-05 14:00:00,44.6,21.2,30.03,NW,315,5.6,5.6,39,0.00,,---,0.00,VWS V14.01,2013-01-05 19:00:00,
2013-01-05 14:05:00,44.8,21.4,30.03,NNW,338,4.9,4.9,39,0.00,,---,0.00,VWS V14.01,2013-01-05 19:05:00,
2013-01-05 14:10:00,45.1,22.3,30.03,NNW,338,3.8,3.8,40,0.00,,---,0.00,VWS V14.01,2013-01-05 19:10:00,
2013-01-05 14:15:00,45.5,22.6,30.03,WSW,248,4.0,4.0,40,0.00,,---,0.00,VWS V14.01,2013-01-05 19:15:00,
2013-01-05 14:20:00,45.1,21.7,30.03,North,0,4.9,4.9,39,0.00,,---,0.00,VWS V14.01,2013-01-05 19:20:00,
2013-01-05 14:25:00,45.3,22.4,30.03,NNE,22,2.2,2.2,40,0.00,,---,0.00,VWS V14.01,2013-01-05 19:25:00,
2013-01-05 14:30:00,44.8,21.4,30.03,NNW,338,4.3,4.3,39,0.00,,---,0.00,VWS V14.01,2013-01-05 19:30:00,
2013-01-05 14:35:00,44.4,21.6,30.03,NNE,22,2.7,2.7,40,0.00,,---,0.00,VWS V14.01,2013-01-05 19:35:00,
2013-01-05 14:40:00,44.6,21.2,30.03,NW,315,2.2,4.3,39,0.00,,---,0.00,VWS V14.01,2013-01-05 19:40:00,
2013-01-05 14:45:00,44.6,21.8,30.03,NW,315,3.4,3.4,40,0.00,,---,0.00,VWS V14.01,2013-01-05 19:45:00,
2013-01-05 14:50:00,44.8,22.0,30.03,NNW,338,4.3,4.3,40,0.00,,---,0.00,VWS V14.01,2013-01-05 19:50:00,
2013-01-05 14:55:00,45.0,22.1,30.03,NE,45,2.5,2.5,40,0.00,,---,0.00,VWS V14.01,2013-01-05 19:55:00,
2013-01-05 15:00:00,44.6,21.2,30.03,North,0,5.4,5.4,39,0.00,,---,0.00,VWS V14.01,2013-01-05 20:00:00,
2013-01-05 15:05:00,44.2,20.9,30.03,NNE,22,2.5,2.5,39,0.00,,---,0.00,VWS V14.01,2013-01-05 20:05:00,
2013-01-05 15:10:00,44.8,22.0,30.03,WNW,292,5.4,5.4,40,0.00,,---,0.00,VWS V14.01,2013-01-05 20:10:00,
2013-01-05 15:15:00,44.4,21.6,30.03,WNW,292,6.5,6.5,40,0.00,,---,0.00,VWS V14.01,2013-01-05 20:15:00,
2013-01-05 15:20:00,44.1,21.3,30.03,NW,315,1.1,1.1,40,0.00,,---,0.00,VWS V14.01,2013-01-05 20:20:00,
2013-01-05 15:25:00,44.1,21.3,30.03,WNW,292,4.9,4.9,40,0.00,,---,0.00,VWS V14.01,2013-01-05 20:25:00,
2013-01-05 15:30:00,43.9,21.1,30.03,NNW,338,5.4,5.4,40,0.00,,---,0.00,VWS V14.01,2013-01-05 20:30:00,
2013-01-05 15:35:00,43.5,20.8,30.03,NNW,338,3.4,3.4,40,0.00,,---,0.00,VWS V14.01,2013-01-05 20:35:00,
2013-01-05 15:40:00,43.0,20.3,30.03,South,180,3.1,3.6,40,0.00,,---,0.00,VWS V14.01,2013-01-05 20:40:00,
2013-01-05 15:45:00,43.0,20.3,30.03,WNW,292,2.9,2.9,40,0.00,,---,0.00,VWS V14.01,2013-01-05 20:45:00,
2013-01-05 15:50:00,42.6,20.6,30.03,NW,315,5.4,5.4,41,0.00,,---,0.00,VWS V14.01,2013-01-05 20:50:00,
2013-01-05 15:55:00,42.1,20.1,30.03,WSW,248,2.9,2.9,41,0.00,,---,0.00,VWS V14.01,2013-01-05 20:55:00,
2013-01-05 16:00:00,42.1,20.1,30.03,NW,315,1.6,1.6,41,0.00,,---,0.00,VWS V14.01,2013-01-05 21:00:00,
2013-01-05 16:05:00,41.7,19.8,30.03,NW,315,1.3,1.3,41,0.00,,---,0.00,VWS V14.01,2013-01-05 21:05:00,
2013-01-05 16:10:00,41.5,19.6,30.03,WNW,292,3.8,3.8,41,0.00,,---,0.00,VWS V14.01,2013-01-05 21:10:00,
2013-01-05 16:15:00,41.2,19.3,30.03,NNW,338,2.9,2.9,41,0.00,,---,0.00,VWS V14.01,2013-01-05 21:15:00,
2013-01-05 16:20:00,41.0,19.1,30.03,WNW,292,1.6,1.6,41,0.00,,---,0.00,VWS V14.01,2013-01-05 21:20:00,
2013-01-05 16:25:00,40.6,19.4,30.03,West,270,3.6,3.6,42,0.00,,---,0.00,VWS V14.01,2013-01-05 21:25:00,
2013-01-05 16:30:00,40.5,19.2,30.03,WNW,292,2.5,2.5,42,0.00,,---,0.00,VWS V14.01,2013-01-05 21:30:00,
2013-01-05 16:35:00,40.3,19.0,30.03,WSW,248,2.7,2.7,42,0.00,,---,0.00,VWS V14.01,2013-01-05 21:35:00,
2013-01-05 16:40:00,39.6,18.4,30.03,WSW,248,2.2,2.2,42,0.00,,---,0.00,VWS V14.01,2013-01-05 21:40:00,
2013-01-05 16:45:00,39.4,18.8,30.03,WNW,292,1.1,1.1,43,0.00,,---,0.00,VWS V14.01,2013-01-05 21:45:00,
2013-01-05 16:50:00,39.0,18.4,30.03,WSW,248,1.6,1.6,43,0.00,,---,0.00,VWS V14.01,2013-01-05 21:50:00,
2013-01-05 16:55:00,38.7,18.6,30.03,West,270,1.6,1.6,44,0.00,,---,0.00,VWS V14.01,2013-01-05 21:55:00,
2013-01-05 17:00:00,38.5,18.5,30.03,WSW,248,2.2,2.2,44,0.00,,---,0.00,VWS V14.01,2013-01-05 22:00:00,
2013-01-05 17:05:00,38.3,18.3,30.03,WNW,292,4.3,4.3,44,0.00,,---,0.00,VWS V14.01,2013-01-05 22:05:00,
2013-01-05 17:10:00,38.1,18.7,30.03,SW,225,2.7,2.7,45,0.00,,---,0.00,VWS V14.01,2013-01-05 22:10:00,
2013-01-05 17:15:00,37.8,18.3,30.03,NW,315,2.9,2.9,45,0.00,,---,0.00,VWS V14.01,2013-01-05 22:15:00,
2013-01-05 17:20:00,37.6,18.2,30.03,WSW,248,2.2,2.2,45,0.00,,---,0.00,VWS V14.01,2013-01-05 22:20:00,
2013-01-05 17:25:00,37.6,18.2,30.03,WNW,292,2.0,2.2,45,0.00,,---,0.00,VWS V14.01,2013-01-05 22:25:00,
2013-01-05 17:30:00,37.4,18.0,30.03,West,270,1.3,1.3,45,0.00,,---,0.00,VWS V14.01,2013-01-05 22:30:00,
2013-01-05 17:35:00,37.2,18.4,30.06,WSW,248,3.1,3.1,46,0.00,,---,0.00,VWS V14.01,2013-01-05 22:35:00,
2013-01-05 17:40:00,37.2,18.4,30.06,WSW,248,4.0,4.0,46,0.00,,---,0.00,VWS V14.01,2013-01-05 22:40:00,
2013-01-05 17:45:00,36.9,18.5,30.06,WNW,292,2.0,2.0,47,0.00,,---,0.00,VWS V14.01,2013-01-05 22:45:00,
2013-01-05 17:50:00,36.9,18.5,30.06,WNW,292,1.3,2.5,47,0.00,,---,0.00,VWS V14.01,2013-01-05 22:50:00,
2013-01-05 17:55:00,36.7,18.4,30.06,WSW,248,2.9,2.9,47,0.00,,---,0.00,VWS V14.01,2013-01-05 22:55:00,
2013-01-05 18:00:00,36.5,18.2,30.06,WNW,292,2.0,2.0,47,0.00,,---,0.00,VWS V14.01,2013-01-05 23:00:00,
2013-01-05 18:05:00,36.5,18.7,30.03,SW,225,2.0,2.0,48,0.00,,---,0.00,VWS V14.01,2013-01-05 23:05:00,
2013-01-05 18:10:00,36.1,18.4,30.03,WSW,248,1.6,1.6,48,0.00,,---,0.00,VWS V14.01,2013-01-05 23:10:00,
2013-01-05 18:15:00,36.0,18.7,30.03,NW,315,2.0,2.0,49,0.00,,---,0.00,VWS V14.01,2013-01-05 23:15:00,
2013-01-05 18:20:00,36.0,18.7,30.06,WSW,248,4.7,4.7,49,0.00,,---,0.00,VWS V14.01,2013-01-05 23:20:00,
2013-01-05 18:25:00,35.8,18.5,30.06,WSW,248,2.2,2.2,49,0.00,,---,0.00,VWS V14.01,2013-01-05 23:25:00,
2013-01-05 18:30:00,35.8,18.5,30.06,West,270,2.0,2.0,49,0.00,,---,0.00,VWS V14.01,2013-01-05 23:30:00,
2013-01-05 18:35:00,35.6,18.3,30.06,SSW,202,1.6,1.6,49,0.00,,---,0.00,VWS V14.01,2013-01-05 23:35:00,
2013-01-05 18:40:00,35.4,18.6,30.06,West,270,1.6,1.6,50,0.00,,---,0.00,VWS V14.01,2013-01-05 23:40:00,
2013-01-05 18:45:00,35.2,18.5,30.06,SW,225,2.5,2.7,50,0.00,,---,0.00,VWS V14.01,2013-01-05 23:45:00,
2013-01-05 18:50:00,35.4,18.6,30.06,WNW,292,1.6,1.6,50,0.00,,---,0.00,VWS V14.01,2013-01-05 23:50:00,
2013-01-05 18:55:00,34.9,18.1,30.06,WSW,248,0.0,0.0,50,0.00,,---,0.00,VWS V14.01,2013-01-05 23:55:00,
2013-01-05 19:00:00,34.7,18.0,30.06,WSW,248,3.4,3.4,50,0.00,,---,0.00,VWS V14.01,2013-01-06 00:00:00,
2013-01-05 19:04:00,34.5,17.8,30.06,West,270,2.5,2.5,50,0.00,,---,0.00,VWS V14.01,2013-01-06 00:04:00,
2013-01-05 19:10:00,34.7,18.0,30.06,WSW,248,3.8,3.8,50,0.00,,---,0.00,VWS V14.01,2013-01-06 00:10:00,
2013-01-05 19:15:00,34.3,18.1,30.06,WSW,248,2.7,2.7,51,0.00,,---,0.00,VWS V14.01,2013-01-06 00:15:00,
2013-01-05 19:20:00,34.5,18.3,30.06,West,270,2.7,3.6,51,0.00,,---,0.00,VWS V14.01,2013-01-06 00:20:00,
2013-01-05 19:25:00,34.5,18.3,30.06,West,270,5.6,5.6,51,0.00,,---,0.00,VWS V14.01,2013-01-06 00:25:00,
2013-01-05 19:29:00,34.7,18.4,30.06,WSW,248,4.3,4.3,51,0.00,,---,0.00,VWS V14.01,2013-01-06 00:29:00,
2013-01-05 19:34:00,34.7,18.4,30.06,WSW,248,2.9,2.9,51,0.00,,---,0.00,VWS V14.01,2013-01-06 00:34:00,
2013-01-05 19:40:00,34.7,18.4,30.06,NW,315,2.0,3.6,51,0.00,,---,0.00,VWS V14.01,2013-01-06 00:40:00,
2013-01-05 19:45:00,34.7,18.4,30.06,West,270,3.8,3.8,51,0.00,,---,0.00,VWS V14.01,2013-01-06 00:45:00,
2013-01-05 19:50:00,34.7,18.4,30.06,West,270,6.3,6.3,51,0.00,,---,0.00,VWS V14.01,2013-01-06 00:50:00,
2013-01-05 19:54:00,34.7,18.0,30.06,West,270,3.4,3.4,50,0.00,,---,0.00,VWS V14.01,2013-01-06 00:54:00,
2013-01-05 19:59:00,34.5,17.8,30.06,WSW,248,3.4,3.4,50,0.00,,---,0.00,VWS V14.01,2013-01-06 00:59:00,
2013-01-05 20:04:00,34.5,17.8,30.03,SW,225,3.4,3.4,50,0.00,,---,0.00,VWS V14.01,2013-01-06 01:04:00,
2013-01-05 20:09:00,34.3,18.1,30.03,WSW,248,2.5,3.6,51,0.00,,---,0.00,VWS V14.01,2013-01-06 01:09:00,
2013-01-05 20:14:00,34.2,17.9,30.03,WSW,248,2.0,2.0,51,0.00,,---,0.00,VWS V14.01,2013-01-06 01:14:00,
2013-01-05 20:19:00,34.2,17.9,30.03,WSW,248,2.5,2.9,51,0.00,,---,0.00,VWS V14.01,2013-01-06 01:19:00,
2013-01-05 20:24:00,34.0,17.8,30.03,WSW,248,2.9,2.9,51,0.00,,---,0.00,VWS V14.01,2013-01-06 01:24:00,
2013-01-05 20:29:00,34.0,17.8,30.03,WSW,248,3.1,3.1,51,0.00,,---,0.00,VWS V14.01,2013-01-06 01:29:00,
2013-01-05 20:34:00,34.0,17.8,30.03,WSW,248,4.0,4.3,51,0.00,,---,0.00,VWS V14.01,2013-01-06 01:34:00,
2013-01-05 20:39:00,34.0,17.8,30.03,SW,225,2.9,2.9,51,0.00,,---,0.00,VWS V14.01,2013-01-06 01:39:00,
2013-01-05 20:44:00,34.0,17.8,30.03,West,270,2.7,2.7,51,0.00,,---,0.00,VWS V14.01,2013-01-06 01:44:00,
2013-01-05 20:49:00,34.0,17.8,30.03,WSW,248,2.2,2.9,51,0.00,,---,0.00,VWS V14.01,2013-01-06 01:49:00,
2013-01-05 20:54:00,34.0,17.8,30.03,NW,315,2.9,4.3,51,0.00,,---,0.00,VWS V14.01,2013-01-06 01:54:00,
2013-01-05 20:59:00,33.8,18.0,30.03,WSW,248,3.4,3.8,52,0.00,,---,0.00,VWS V14.01,2013-01-06 01:59:00,
2013-01-05 21:04:00,34.0,17.8,30.03,WSW,248,2.9,3.6,51,0.00,,---,0.00,VWS V14.01,2013-01-06 02:04:00,
2013-01-05 21:09:00,33.8,17.6,30.03,SSW,202,2.0,2.2,51,0.00,,---,0.00,VWS V14.01,2013-01-06 02:09:00,
2013-01-05 21:14:00,33.8,18.0,30.03,WNW,292,3.1,3.1,52,0.00,,---,0.00,VWS V14.01,2013-01-06 02:14:00,
2013-01-05 21:19:00,33.8,18.0,30.06,WSW,248,2.7,4.0,52,0.00,,---,0.00,VWS V14.01,2013-01-06 02:19:00,
2013-01-05 21:24:00,33.8,18.0,30.06,WNW,292,3.6,3.6,52,0.00,,---,0.00,VWS V14.01,2013-01-06 02:24:00,
2013-01-05 21:29:00,33.8,18.0,30.06,WNW,292,3.1,3.1,52,0.00,,---,0.00,VWS V14.01,2013-01-06 02:29:00,
2013-01-05 21:34:00,33.8,18.0,30.06,WNW,292,2.0,2.9,52,0.00,,---,0.00,VWS V14.01,2013-01-06 02:34:00,
2013-01-05 21:39:00,33.8,18.0,30.06,WNW,292,2.7,3.1,52,0.00,,---,0.00,VWS V14.01,2013-01-06 02:39:00,
2013-01-05 21:44:00,33.8,18.0,30.06,WNW,292,1.3,1.3,52,0.00,,---,0.00,VWS V14.01,2013-01-06 02:44:00,
2013-01-05 21:49:00,33.8,18.0,30.03,West,270,1.3,1.3,52,0.00,,---,0.00,VWS V14.01,2013-01-06 02:49:00,
2013-01-05 21:54:00,33.8,18.0,30.03,WNW,292,0.0,1.1,52,0.00,,---,0.00,VWS V14.01,2013-01-06 02:54:00,
2013-01-05 21:59:00,33.8,18.0,30.03,West,270,0.0,0.0,52,0.00,,---,0.00,VWS V14.01,2013-01-06 02:59:00,
2013-01-05 22:04:00,34.0,18.2,30.03,WNW,292,1.3,1.3,52,0.00,,---,0.00,VWS V14.01,2013-01-06 03:04:00,
2013-01-05 22:09:00,34.0,18.7,30.03,West,270,0.0,0.0,53,0.00,,---,0.00,VWS V14.01,2013-01-06 03:09:00,
2013-01-05 22:14:00,34.0,18.2,30.03,SSW,202,0.0,0.0,52,0.00,,---,0.00,VWS V14.01,2013-01-06 03:14:00,
2013-01-05 22:19:00,33.8,18.5,30.00,WSW,248,0.0,0.0,53,0.00,,---,0.00,VWS V14.01,2013-01-06 03:19:00,
2013-01-05 22:24:00,34.2,18.8,30.00,WNW,292,1.3,1.6,53,0.00,,---,0.00,VWS V14.01,2013-01-06 03:24:00,
2013-01-05 22:29:00,34.2,18.8,30.00,West,270,2.7,2.7,53,0.00,,---,0.00,VWS V14.01,2013-01-06 03:29:00,
2013-01-05 22:34:00,34.3,19.0,30.03,West,270,2.0,2.9,53,0.00,,---,0.00,VWS V14.01,2013-01-06 03:34:00,
2013-01-05 22:39:00,34.3,19.0,30.03,WSW,248,2.9,2.9,53,0.00,,---,0.00,VWS V14.01,2013-01-06 03:39:00,
2013-01-05 22:44:00,34.3,19.0,30.03,WSW,248,3.1,3.1,53,0.00,,---,0.00,VWS V14.01,2013-01-06 03:44:00,
2013-01-05 22:49:00,34.3,19.0,30.03,WSW,248,3.8,3.8,53,0.00,,---,0.00,VWS V14.01,2013-01-06 03:49:00,
2013-01-05 22:54:00,34.5,19.2,30.03,West,270,2.5,2.5,53,0.00,,---,0.00,VWS V14.01,2013-01-06 03:54:00,
2013-01-05 22:59:00,34.5,19.2,30.03,West,270,2.0,2.0,53,0.00,,---,0.00,VWS V14.01,2013-01-06 03:59:00,
2013-01-05 23:04:00,34.5,19.2,30.03,WSW,248,2.5,2.5,53,0.00,,---,0.00,VWS V14.01,2013-01-06 04:04:00,
2013-01-05 23:09:00,34.3,19.0,30.03,WSW,248,0.0,0.0,53,0.00,,---,0.00,VWS V14.01,2013-01-06 04:09:00,
2013-01-05 23:14:00,34.3,19.0,30.03,West,270,1.1,1.1,53,0.00,,---,0.00,VWS V14.01,2013-01-06 04:14:00,
2013-01-05 23:19:00,34.3,19.0,30.00,WSW,248,2.5,2.5,53,0.00,,---,0.00,VWS V14.01,2013-01-06 04:19:00,
2013-01-05 23:24:00,34.3,19.0,30.00,WSW,248,0.0,0.0,53,0.00,,---,0.00,VWS V14.01,2013-01-06 04:24:00,
2013-01-05 23:29:00,34.0,18.7,30.00,WSW,248,0.0,0.0,53,0.00,,---,0.00,VWS V14.01,2013-01-06 04:29:00,
2013-01-05 23:34:00,34.3,19.0,30.00,WNW,292,1.6,1.6,53,0.00,,---,0.00,VWS V14.01,2013-01-06 04:34:00,
2013-01-05 23:39:00,34.3,19.0,30.00,WSW,248,2.0,2.0,53,0.00,,---,0.00,VWS V14.01,2013-01-06 04:39:00,
2013-01-05 23:44:00,34.3,19.0,30.00,WNW,292,1.6,1.6,53,0.00,,---,0.00,VWS V14.01,2013-01-06 04:44:00,
2013-01-05 23:49:00,34.5,19.2,30.00,WNW,292,1.6,3.4,53,0.00,,---,0.00,VWS V14.01,2013-01-06 04:49:00,
2013-01-05 23:54:00,34.5,19.2,30.00,WSW,248,2.2,2.7,53,0.00,,---,0.00,VWS V14.01,2013-01-06 04:54:00,
2013-01-05 23:59:00,34.5,19.2,30.00,WSW,248,1.6,2.5,53,0.00,,---,0.00,VWS V14.01,2013-01-06 04:59:00,